Time;durP1;ratioP1;P1;durP2;ratioP2;P2;SDS_P1;SDS_P2;PMS_P1;PMS_P2;Temp;Humidity;BMP_temperature;BMP_pressure;BME280_temperature;BME280_humidity;BME280_pressure;Samples;Min_cycle;Max_cycle;Signal;HPM_P1;HPM_P2
2022/12/12 00:01:26;;;;;;;43.80;39.90;;;;;;;-4.03;99.12;96554.27;106627;1300;22128;-86
2022/12/12 00:03:54;;;;;;;44.00;39.70;;;;;;;-4.05;99.06;96554.02;106598;1299;22371;-84
2022/12/12 00:06:23;;;;;;;44.70;40.50;;;;;;;-4.03;99.07;96553.54;106372;1307;22174;-85
2022/12/12 00:08:52;;;;;;;45.30;41.10;;;;;;;-3.99;99.33;96552.64;106594;1300;22324;-84
2022/12/12 00:11:21;;;;;;;47.60;43.20;;;;;;;-3.98;99.27;96547.83;106297;1295;22146;-86
2022/12/12 00:13:50;;;;;;;51.80;46.70;;;;;;;-3.99;99.33;96548.92;106385;1313;22169;-85
2022/12/12 00:16:18;;;;;;;48.30;43.80;;;;;;;-4.01;99.34;96544.92;106019;1310;22123;-84
2022/12/12 00:18:47;;;;;;;46.10;41.70;;;;;;;-4.00;99.31;96545.77;106183;1303;22253;-86
2022/12/12 00:21:19;;;;;;;45.20;41.10;;;;;;;-3.99;99.37;96548.59;106554;1305;22151;-85
2022/12/12 00:23:48;;;;;;;46.00;41.60;;;;;;;-3.98;99.55;96546.73;106640;1279;22168;-84
2022/12/12 00:26:22;;;;;;;46.90;42.60;;;;;;;-3.99;99.46;96546.55;106485;1291;22110;-86
2022/12/12 00:28:50;;;;;;;;;;;;;;;-4.01;99.34;96545.56;106524;1312;22355;-85
2022/12/12 00:31:18;;;;;;;43.20;39.20;;;;;;;-4.04;99.36;96549.73;106432;1300;22962;-85
2022/12/12 00:33:48;;;;;;;43.10;39.10;;;;;;;-4.01;99.55;96547.50;106490;1307;22162;-83
2022/12/12 00:36:19;;;;;;;46.20;41.90;;;;;;;-3.98;99.63;96550.77;106650;1305;22166;-84
2022/12/12 00:38:47;;;;;;;42.30;38.60;;;;;;;-3.97;99.68;96551.92;106620;1306;22156;-84
2022/12/12 00:41:16;;;;;;;47.00;42.70;;;;;;;-3.99;99.60;96553.92;106467;1312;22085;-85
2022/12/12 00:43:44;;;;;;;44.30;40.30;;;;;;;-3.99;99.70;96552.55;106257;1312;22268;-86
2022/12/12 00:46:21;;;;;;;45.60;41.30;;;;;;;-3.99;99.71;96549.54;106257;1312;22256;-83
2022/12/12 00:48:54;;;;;;;47.00;42.40;;;;;;;-3.99;99.62;96550.17;106506;1293;22251;-85
2022/12/12 00:51:24;;;;;;;47.00;42.50;;;;;;;-4.02;99.67;96552.39;106255;1307;22079;-85
2022/12/12 00:53:52;;;;;;;45.10;40.70;;;;;;;-4.03;99.69;96546.28;106688;1291;22913;-84
2022/12/12 00:56:21;;;;;;;45.00;40.90;;;;;;;-4.03;99.63;96544.23;106554;1312;22217;-85
2022/12/12 00:58:50;;;;;;;49.30;44.60;;;;;;;-4.02;99.68;96540.71;106289;1312;22198;-85
2022/12/12 01:01:22;;;;;;;46.90;42.40;;;;;;;-4.03;99.63;96539.33;106491;1312;22084;-84
2022/12/12 01:03:51;;;;;;;46.50;42.20;;;;;;;-4.04;99.70;96538.30;106683;1305;22906;-85
2022/12/12 01:06:20;;;;;;;42.00;38.00;;;;;;;-4.04;99.78;96536.67;106610;1305;22240;-83
2022/12/12 01:08:48;;;;;;;39.90;36.10;;;;;;;-4.03;99.82;96539.52;106229;1312;22202;-85
2022/12/12 01:11:17;;;;;;;44.40;40.50;;;;;;;-4.03;99.99;96538.00;106105;1312;22146;-84
2022/12/12 01:13:47;;;;;;;44.50;40.30;;;;;;;-4.04;99.93;96538.09;106521;1305;22068;-85
2022/12/12 01:16:15;;;;;;;44.90;40.70;;;;;;;-4.06;99.87;96540.13;106493;1302;22236;-85
2022/12/12 01:18:44;;;;;;;43.40;39.30;;;;;;;-4.07;99.81;96536.05;106655;1291;22927;-84
2022/12/12 01:21:15;;;;;;;41.10;37.20;;;;;;;-4.03;99.94;96535.00;106655;1300;22146;-84
2022/12/12 01:23:43;;;;;;;44.30;40.10;;;;;;;-3.99;99.94;96534.29;106657;1305;22324;-85
2022/12/12 01:26:20;;;;;;;43.80;39.60;;;;;;;-3.99;100.00;96531.76;106695;1305;22153;-85
2022/12/12 01:28:49;;;;;;;49.30;44.40;;;;;;;-4.01;99.96;96526.30;106381;1312;22118;-85
2022/12/12 01:31:17;;;;;;;44.40;40.10;;;;;;;-4.04;99.93;96526.89;106086;1312;22179;-85
2022/12/12 01:33:45;;;;;;;46.40;41.90;;;;;;;-4.03;99.96;96526.17;106290;1312;22198;-86
2022/12/12 01:36:17;;;;;;;40.80;36.60;;;;;;;-4.04;99.96;96525.05;106479;1312;22248;-86
2022/12/12 01:38:46;;;;;;;40.60;36.50;;;;;;;-4.03;99.94;96521.16;106126;1312;22144;-84
2022/12/12 01:41:15;;;;;;;43.40;39.30;;;;;;;-3.99;100.00;96523.34;106012;1312;23021;-84
2022/12/12 01:43:45;;;;;;;44.70;40.40;;;;;;;-3.98;100.00;96521.05;106009;1312;22249;-84
2022/12/12 01:46:39;;;;;;;44.20;39.60;;;;;;;-4.03;99.90;96522.27;106251;1297;22195;-85
2022/12/12 01:49:14;;;;;;;43.30;39.00;;;;;;;-4.04;99.92;96521.63;106681;1305;22167;-86
2022/12/12 01:51:43;;;;;;;;;;;;;;;-3.98;99.99;96520.88;106672;1290;22989;-86
2022/12/12 01:54:16;;;;;;;41.50;37.60;;;;;;;-4.04;100.00;96518.42;106388;1312;22212;-86
2022/12/12 01:56:46;;;;;;;41.40;37.40;;;;;;;-4.08;99.96;96521.88;106559;1300;22899;-86
2022/12/12 01:59:18;;;;;;;37.40;34.00;;;;;;;-4.10;99.92;96519.70;106505;1312;22081;-84
2022/12/12 02:01:46;;;;;;;36.00;32.70;;;;;;;-4.10;100.00;96520.80;106557;1300;22166;-86
2022/12/12 02:04:16;;;;;;;38.50;34.90;;;;;;;-4.09;100.00;96519.28;106471;1305;22117;-83
2022/12/12 02:06:45;;;;;;;39.40;35.60;;;;;;;-4.12;100.00;96519.09;106117;1312;22335;-86
2022/12/12 02:09:15;;;;;;;37.50;34.00;;;;;;;-4.14;99.94;96522.23;106250;1312;22380;-86
2022/12/12 02:11:46;;;;;;;35.90;32.40;;;;;;;-4.16;99.97;96519.28;106078;1304;22073;-86
2022/12/12 02:14:19;;;;;;;32.40;29.40;;;;;;;-4.16;99.99;96520.66;106532;1300;22861;-86
2022/12/12 02:17:09;;;;;;;34.00;30.70;;;;;;;-4.14;100.00;96520.96;106379;1312;22170;-85
2022/12/12 02:19:58;;;;;;;34.00;30.70;;;;;;;-4.12;100.00;96518.66;106450;1312;22816;-86
2022/12/12 02:22:56;;;;;;;38.20;34.80;;;;;;;-4.14;99.98;96515.59;106617;1305;22110;-85
2022/12/12 02:25:58;;;;;;;36.70;33.10;;;;;;;-4.16;100.00;96515.77;106439;1312;22737;-85
2022/12/12 02:28:44;;;;;;;33.80;30.70;;;;;;;-4.16;99.97;96520.85;106681;1290;22253;-86
2022/12/12 02:31:34;;;;;;;36.20;32.80;;;;;;;-4.17;99.99;96515.48;106478;1311;22947;-86
2022/12/12 02:34:08;;;;;;;35.60;32.40;;;;;;;-4.21;100.00;96517.30;106390;1299;22251;-85
2022/12/12 02:37:00;;;;;;;34.40;31.30;;;;;;;-4.23;100.00;96514.70;106520;1312;22141;-85
2022/12/12 02:39:52;;;;;;;33.40;30.20;;;;;;;-4.23;100.00;96516.69;106442;1312;22196;-85
2022/12/12 02:42:35;;;;;;;34.60;31.50;;;;;;;-4.25;99.97;96511.52;106561;1305;22950;-85
2022/12/12 02:45:15;;;;;;;33.50;30.40;;;;;;;-4.20;100.00;96517.62;106443;1312;22257;-85
2022/12/12 02:47:52;;;;;;;35.90;32.50;;;;;;;-4.22;100.00;96516.91;106374;1312;22989;-86
2022/12/12 02:50:24;;;;;;;32.80;29.80;;;;;;;-4.23;99.95;96515.84;106248;1312;22188;-86
2022/12/12 02:52:52;;;;;;;33.80;30.60;;;;;;;-4.26;99.98;96514.96;106109;1312;22299;-85
2022/12/12 02:55:21;;;;;;;32.90;29.80;;;;;;;-4.23;100.00;96519.00;106272;1312;22882;-86
2022/12/12 02:57:50;;;;;;;34.30;31.10;;;;;;;-4.23;100.00;96516.54;106441;1311;22185;-85
2022/12/12 03:00:19;;;;;;;37.90;34.30;;;;;;;-4.25;99.95;96514.92;106472;1311;22188;-84
2022/12/12 03:09:45;;;;;;;38.10;34.70;;;;;;;-4.23;100.00;96512.02;106589;1312;22791;-83
2022/12/12 03:12:22;;;;;;;35.40;32.40;;;;;;;-4.21;100.00;96514.98;106528;1312;22104;-86
2022/12/12 03:15:06;;;;;;;35.70;32.30;;;;;;;-4.24;100.00;96512.77;106305;1312;22197;-85
2022/12/12 03:17:37;;;;;;;34.10;30.70;;;;;;;-4.27;99.98;96515.84;106421;1312;22083;-85
2022/12/12 03:20:27;;;;;;;33.50;30.50;;;;;;;-4.24;100.00;96514.90;106597;1298;22324;-85
2022/12/12 03:23:01;;;;;;;34.50;31.30;;;;;;;-4.23;100.00;96513.08;106711;1293;22067;-84
2022/12/12 03:25:46;;;;;;;35.70;32.30;;;;;;;-4.23;100.00;96508.79;106668;1297;22277;-86
2022/12/12 03:28:21;;;;;;;33.80;30.60;;;;;;;-4.23;100.00;96509.29;106669;1305;22248;-85
2022/12/12 03:30:54;;;;;;;31.80;28.80;;;;;;;-4.24;100.00;96509.95;106541;1300;22163;-86
2022/12/12 03:33:30;;;;;;;33.30;30.20;;;;;;;-4.23;100.00;96506.44;106269;1313;22339;-85
2022/12/12 03:36:23;;;;;;;34.30;31.10;;;;;;;-4.19;100.00;96508.50;106336;1314;22214;-85
2022/12/12 03:38:57;;;;;;;34.70;31.60;;;;;;;-4.19;100.00;96509.55;106125;1314;22274;-84
2022/12/12 03:41:32;;;;;;;33.10;30.10;;;;;;;-4.23;100.00;96510.54;106222;1312;22174;-84
2022/12/12 03:44:27;;;;;;;32.90;29.80;;;;;;;-4.24;100.00;96505.48;106097;1312;22273;-85
2022/12/12 03:47:04;;;;;;;33.30;30.00;;;;;;;-4.21;100.00;96510.77;106347;1313;22122;-84
2022/12/12 03:49:39;;;;;;;34.20;30.90;;;;;;;-4.20;100.00;96513.49;106216;1312;23115;-84
2022/12/12 03:52:14;;;;;;;38.40;34.80;;;;;;;-4.21;100.00;96512.52;106239;1305;22333;-85
2022/12/12 03:54:50;;;;;;;31.60;28.70;;;;;;;-4.24;100.00;96519.67;106447;1312;22308;-83
2022/12/12 03:57:24;;;;;;;33.30;30.10;;;;;;;-4.26;100.00;96513.48;106222;1312;22216;-85
2022/12/12 04:00:04;;;;;;;31.20;28.40;;;;;;;-4.25;100.00;96510.77;106256;1312;23015;-84
2022/12/12 04:03:09;;;;;;;32.20;29.20;;;;;;;-4.21;100.00;96515.88;106587;1305;22170;-86
2022/12/12 04:06:25;;;;;;;33.00;29.90;;;;;;;-4.22;100.00;96511.39;106471;1312;22303;-85
2022/12/12 04:08:33;;;;;;;32.40;29.30;;;;;;;-4.23;100.00;96513.21;106452;1312;22201;-84
2022/12/12 04:14:30;;;;;;;32.30;29.30;;;;;;;-4.21;100.00;96511.83;106355;1312;22272;-85
2022/12/12 04:17:02;;;;;;;38.10;34.50;;;;;;;-4.22;100.00;96508.77;106272;1305;22394;-85
2022/12/12 04:28:32;;;;;;;34.60;31.50;;;;;;;-4.14;100.00;96503.80;106478;1312;22226;-85
2022/12/12 04:31:03;;;;;;;37.60;34.00;;;;;;;-4.15;100.00;96507.79;106348;1312;22237;-87
2022/12/12 04:33:44;;;;;;;34.50;31.30;;;;;;;-4.16;100.00;96507.24;106224;1313;22182;-84
2022/12/12 04:36:15;;;;;;;35.90;32.60;;;;;;;-4.16;100.00;96506.23;106218;1313;23123;-83
2022/12/12 04:38:48;;;;;;;34.60;31.30;;;;;;;-4.14;100.00;96505.95;106237;1314;22720;-85
2022/12/12 04:41:19;;;;;;;33.90;30.70;;;;;;;-4.13;100.00;96504.50;106266;1312;22421;-85
2022/12/12 04:43:49;;;;;;;34.80;31.60;;;;;;;-4.09;100.00;96506.94;106546;1308;22197;-87
2022/12/12 04:46:22;;;;;;;37.70;34.40;;;;;;;-4.09;100.00;96506.39;106635;1305;22190;-85
2022/12/12 04:48:54;;;;;;;38.20;34.60;;;;;;;-4.09;100.00;96506.19;106252;1314;21978;-84
2022/12/12 04:51:31;;;;;;;36.00;32.60;;;;;;;-4.11;100.00;96504.83;106516;1300;22725;-84
2022/12/12 04:54:15;;;;;;;34.00;30.90;;;;;;;-4.11;100.00;96506.69;106632;1307;22168;-85
2022/12/12 04:56:44;;;;;;;31.70;28.70;;;;;;;-4.11;100.00;96505.06;106585;1291;22167;-84
2022/12/12 04:59:12;;;;;;;32.50;29.50;;;;;;;-4.09;100.00;96513.45;106634;1302;22248;-84
2022/12/12 05:02:08;;;;;;;32.60;29.80;;;;;;;-4.08;100.00;96507.30;106220;1291;22083;-86
2022/12/12 05:05:01;;;;;;;34.10;31.00;;;;;;;-4.13;100.00;96512.48;106517;1294;22163;-84
2022/12/12 05:07:36;;;;;;;35.70;32.50;;;;;;;-4.12;100.00;96505.62;106648;1308;22213;-84
2022/12/12 05:10:13;;;;;;;36.20;32.90;;;;;;;-4.15;100.00;96506.46;105972;1306;22171;-84
2022/12/12 05:12:49;;;;;;;42.30;38.30;;;;;;;-4.11;100.00;96507.63;106101;1314;22204;-85
2022/12/12 05:15:19;;;;;;;41.70;37.90;;;;;;;-4.13;100.00;96503.96;106246;1314;22359;-84
2022/12/12 05:18:00;;;;;;;40.20;36.50;;;;;;;-4.15;100.00;96507.55;106248;1312;22227;-85
2022/12/12 05:20:28;;;;;;;40.40;36.70;;;;;;;-4.15;100.00;96504.85;106600;1292;22237;-84
2022/12/12 05:22:56;;;;;;;39.50;35.90;;;;;;;-4.13;100.00;96506.39;106257;1312;22171;-84
2022/12/12 05:25:24;;;;;;;49.10;44.20;;;;;;;-4.12;100.00;96507.00;106462;1312;22213;-84
2022/12/12 05:27:52;;;;;;;46.40;42.00;;;;;;;-4.08;100.00;96507.31;106286;1313;22188;-84
2022/12/12 05:30:20;;;;;;;47.80;43.40;;;;;;;-4.09;100.00;96507.53;106770;1305;22173;-86
2022/12/12 05:32:48;;;;;;;40.90;37.30;;;;;;;-4.10;100.00;96507.45;106757;1297;22181;-84
2022/12/12 05:35:16;;;;;;;40.50;36.60;;;;;;;-4.07;100.00;96509.80;106775;1305;22144;-85
2022/12/12 05:37:44;;;;;;;43.80;39.80;;;;;;;-4.04;100.00;96508.99;106366;1312;22256;-84
2022/12/12 05:40:19;;;;;;;40.60;37.10;;;;;;;-4.03;100.00;96512.70;106503;1312;22880;-85
2022/12/12 05:42:48;;;;;;;42.20;38.30;;;;;;;-4.06;100.00;96512.22;106275;1313;22177;-85
2022/12/12 05:45:16;;;;;;;38.50;35.10;;;;;;;-4.08;100.00;96511.56;106383;1312;22098;-86
2022/12/12 05:47:43;;;;;;;37.70;34.30;;;;;;;-4.10;100.00;96512.59;106525;1312;22224;-86
2022/12/12 05:50:11;;;;;;;34.40;31.30;;;;;;;-4.09;100.00;96519.13;106623;1305;22166;-86
2022/12/12 05:52:39;;;;;;;34.10;31.00;;;;;;;-4.06;100.00;96518.16;106759;1297;22821;-86
2022/12/12 05:55:08;;;;;;;38.10;34.60;;;;;;;-4.06;100.00;96523.65;106672;1297;22892;-87
2022/12/12 05:57:36;;;;;;;35.10;32.10;;;;;;;-4.07;100.00;96525.41;106771;1304;22072;-86
2022/12/12 06:00:04;;;;;;;33.80;30.60;;;;;;;-4.10;100.00;96528.36;106773;1285;22313;-90
2022/12/12 06:02:33;;;;;;;34.00;31.00;;;;;;;-4.09;100.00;96526.96;106818;1304;22988;-87
2022/12/12 06:05:01;;;;;;;35.10;31.90;;;;;;;-4.07;100.00;96527.58;106853;1303;22200;-87
2022/12/12 06:07:29;;;;;;;35.10;31.90;;;;;;;-4.05;100.00;96525.13;106779;1291;22823;-84
2022/12/12 06:09:57;;;;;;;45.50;41.30;;;;;;;-4.07;100.00;96533.67;106781;1297;22320;-83
2022/12/12 06:12:25;;;;;;;37.70;34.20;;;;;;;-4.08;100.00;96530.93;106645;1312;22147;-86
2022/12/12 06:14:53;;;;;;;32.90;30.00;;;;;;;-4.10;100.00;96533.02;106756;1301;22263;-85
2022/12/12 06:17:21;;;;;;;33.20;30.20;;;;;;;-4.09;100.00;96535.02;106786;1305;22157;-87
2022/12/12 06:19:49;;;;;;;32.90;29.70;;;;;;;-4.05;100.00;96534.39;106804;1305;22193;-84
2022/12/12 06:22:17;;;;;;;33.60;30.70;;;;;;;-4.04;100.00;96539.10;106440;1313;22817;-83
2022/12/12 06:24:45;;;;;;;34.90;31.80;;;;;;;-4.05;100.00;96539.70;106872;1305;22081;-89
2022/12/12 06:27:13;;;;;;;31.30;28.40;;;;;;;-4.04;100.00;96545.02;106583;1312;22229;-85
2022/12/12 06:29:41;;;;;;;30.10;27.40;;;;;;;-4.09;100.00;96549.02;106791;1305;22322;-85
2022/12/12 06:32:09;;;;;;;29.30;26.50;;;;;;;-4.07;100.00;96550.25;106776;1305;22061;-83
2022/12/12 06:34:38;;;;;;;30.80;27.90;;;;;;;-4.05;100.00;96548.86;106619;1288;22173;-83
2022/12/12 06:37:06;;;;;;;31.20;28.60;;;;;;;-4.03;100.00;96549.94;106779;1288;22071;-85
2022/12/12 06:39:34;;;;;;;34.60;31.70;;;;;;;-4.01;100.00;96549.88;106630;1312;22246;-86
2022/12/12 06:42:02;;;;;;;33.70;30.70;;;;;;;-4.03;100.00;96553.31;107106;1282;22188;-89
2022/12/12 06:44:31;;;;;;;32.50;29.60;;;;;;;-4.05;100.00;96554.27;106573;1310;22151;-86
2022/12/12 06:46:59;;;;;;;32.30;29.50;;;;;;;-4.07;100.00;96553.47;106445;1312;22211;-83
2022/12/12 06:49:27;;;;;;;33.40;30.30;;;;;;;-4.06;100.00;96552.73;106848;1308;22276;-87
2022/12/12 06:51:56;;;;;;;33.00;30.00;;;;;;;-4.00;100.00;96558.27;106732;1297;22199;-89
2022/12/12 06:54:25;;;;;;;32.70;29.80;;;;;;;-4.01;100.00;96557.71;106647;1312;22248;-85
2022/12/12 06:56:53;;;;;;;33.80;30.50;;;;;;;-4.04;100.00;96558.34;106683;1313;22188;-84
2022/12/12 06:59:21;;;;;;;32.70;29.70;;;;;;;-4.02;100.00;96561.73;106656;1311;22089;-86
2022/12/12 07:01:49;;;;;;;33.90;30.90;;;;;;;-3.99;100.00;96556.44;106817;1312;22130;-86
2022/12/12 07:04:17;;;;;;;34.80;31.80;;;;;;;-3.96;100.00;96561.95;107047;1309;22198;-86
2022/12/12 07:06:45;;;;;;;36.50;33.20;;;;;;;-3.98;100.00;96561.59;106605;1310;22140;-88
2022/12/12 07:09:13;;;;;;;35.10;32.00;;;;;;;-3.99;100.00;96563.80;106579;1312;22737;-86
2022/12/12 07:11:41;;;;;;;33.20;30.20;;;;;;;-3.98;100.00;96564.09;106430;1312;22194;-85
2022/12/12 07:14:10;;;;;;;34.30;31.30;;;;;;;-3.90;100.00;96570.47;106563;1311;22669;-88
2022/12/12 07:16:38;;;;;;;34.30;31.30;;;;;;;-3.90;100.00;96570.89;106843;1287;22145;-88
2022/12/12 07:19:06;;;;;;;36.20;33.00;;;;;;;-3.89;100.00;96575.91;106479;1312;22159;-85
2022/12/12 07:21:34;;;;;;;36.00;32.70;;;;;;;-3.91;100.00;96574.19;106301;1314;22449;-86
2022/12/12 07:24:02;;;;;;;35.90;32.60;;;;;;;-3.89;100.00;96577.02;106758;1301;22669;-84
2022/12/12 07:26:30;;;;;;;34.00;30.80;;;;;;;-3.86;100.00;96577.54;106511;1313;22185;-85
2022/12/12 07:28:58;;;;;;;211.00;78.30;;;;;;;-3.81;100.00;96578.67;106531;1310;22194;-84
2022/12/12 07:31:27;;;;;;;157.80;60.40;;;;;;;-3.78;100.00;96576.88;106528;1312;22185;-84
2022/12/12 07:33:55;;;;;;;109.80;51.30;;;;;;;-3.77;100.00;96581.14;106634;1297;215258;-84
2022/12/12 07:36:24;;;;;;;104.10;53.20;;;;;;;-3.79;100.00;96579.33;106623;1307;22088;-86
2022/12/12 07:38:52;;;;;;;72.80;47.90;;;;;;;-3.81;100.00;96579.98;106822;1309;22202;-85
2022/12/12 07:41:20;;;;;;;107.60;51.60;;;;;;;-3.80;100.00;96577.80;106770;1303;22293;-85
2022/12/12 07:43:49;;;;;;;52.00;43.50;;;;;;;-3.76;100.00;96579.65;106769;1305;22174;-84
2022/12/12 07:46:21;;;;;;;46.50;41.70;;;;;;;-3.74;100.00;96577.98;106565;1312;22217;-84
2022/12/12 07:48:51;;;;;;;41.30;37.70;;;;;;;-3.73;100.00;96574.95;106752;1303;22130;-85
2022/12/12 07:51:19;;;;;;;40.10;36.30;;;;;;;-3.73;100.00;96576.90;106512;1312;22211;-85
2022/12/12 07:53:47;;;;;;;37.20;33.80;;;;;;;-3.71;100.00;96571.91;106781;1289;22171;-85
2022/12/12 07:56:17;;;;;;;35.70;32.40;;;;;;;-3.71;100.00;96570.94;106793;1305;22176;-85
2022/12/12 07:58:45;;;;;;;35.50;32.10;;;;;;;-3.68;100.00;96577.03;106529;1312;22911;-84
2022/12/12 08:01:19;;;;;;;39.40;35.90;;;;;;;-3.64;100.00;96573.24;106491;1313;22194;-85
2022/12/12 08:03:48;;;;;;;43.90;40.00;;;;;;;-3.63;100.00;96575.63;106501;1313;22104;-84
2022/12/12 08:06:17;;;;;;;39.90;36.30;;;;;;;-3.64;100.00;96575.08;106376;1313;22241;-84
2022/12/12 08:08:46;;;;;;;41.00;37.40;;;;;;;-3.60;100.00;96576.56;106518;1313;22662;-84
2022/12/12 08:11:17;;;;;;;41.10;37.50;;;;;;;-3.59;100.00;96580.89;106408;1312;22718;-85
2022/12/12 08:13:45;;;;;;;44.70;40.80;;;;;;;-3.55;100.00;96583.13;106665;1294;22921;-84
2022/12/12 08:16:17;;;;;;;42.80;38.90;;;;;;;-3.50;100.00;96587.61;106360;1312;22170;-84
2022/12/12 08:18:47;;;;;;;39.00;35.30;;;;;;;-3.48;100.00;96584.64;106288;1314;22871;-85
2022/12/12 08:21:16;;;;;;;43.80;39.60;;;;;;;-3.47;100.00;96586.73;106424;1312;22230;-85
2022/12/12 08:23:55;;;;;;;42.30;38.30;;;;;;;-3.45;100.00;96584.11;106694;1302;22983;-84
2022/12/12 08:26:25;;;;;;;48.40;43.80;;;;;;;-3.41;100.00;96588.39;106476;1312;22183;-85
2022/12/12 08:28:53;;;;;;;50.50;45.60;;;;;;;-3.38;100.00;96589.33;106642;1305;22198;-84
2022/12/12 08:31:22;;;;;;;49.20;44.50;;;;;;;-3.38;100.00;96590.11;106437;1312;22209;-84
2022/12/12 08:33:51;;;;;;;44.50;40.30;;;;;;;-3.34;100.00;96588.79;106684;1305;23018;-85
2022/12/12 08:36:23;;;;;;;42.90;38.80;;;;;;;-3.32;100.00;96587.63;106465;1312;22846;-85
2022/12/12 08:38:51;;;;;;;43.70;39.60;;;;;;;-3.30;100.00;96587.02;106687;1305;22238;-85
2022/12/12 08:41:19;;;;;;;45.70;41.30;;;;;;;-3.31;99.93;96588.32;106738;1303;22226;-84
2022/12/12 08:43:48;;;;;;;42.90;38.70;;;;;;;-3.34;99.90;96590.90;106747;1312;22196;-84
2022/12/12 08:46:20;;;;;;;42.40;38.50;;;;;;;-3.31;99.84;96591.69;106834;1309;22101;-83
2022/12/12 08:48:49;;;;;;;41.80;37.90;;;;;;;-3.33;99.92;96596.24;106785;1312;22210;-84
2022/12/12 08:51:17;;;;;;;48.60;43.80;;;;;;;-3.28;99.94;96598.10;106893;1297;22215;-85
2022/12/12 08:53:47;;;;;;;47.20;42.70;;;;;;;-3.28;100.00;96602.54;106660;1305;22079;-85
2022/12/12 08:56:16;;;;;;;45.10;40.70;;;;;;;-3.32;99.77;96603.42;106481;1303;22211;-84
2022/12/12 08:58:45;;;;;;;43.30;39.30;;;;;;;-3.31;99.92;96600.90;106537;1312;22175;-85
2022/12/12 09:01:17;;;;;;;43.60;39.50;;;;;;;-3.28;99.77;96599.77;106525;1312;22199;-85
2022/12/12 09:03:46;;;;;;;42.90;38.80;;;;;;;-3.28;99.97;96599.20;106329;1313;22148;-86
2022/12/12 09:06:15;;;;;;;44.50;40.20;;;;;;;-3.26;99.89;96598.98;106278;1312;22393;-85
2022/12/12 09:08:45;;;;;;;46.60;42.00;;;;;;;-3.28;99.69;96600.45;106613;1306;22060;-82
2022/12/12 09:11:14;;;;;;;44.80;40.60;;;;;;;-3.27;99.51;96598.95;106478;1312;22277;-84
2022/12/12 09:13:43;;;;;;;44.60;40.30;;;;;;;-3.28;99.48;96598.05;106281;1313;22209;-85
2022/12/12 09:16:11;;;;;;;46.30;42.10;;;;;;;-3.25;99.80;96596.67;106252;1313;22076;-85
2022/12/12 09:18:40;;;;;;;49.80;45.40;;;;;;;-3.18;99.89;96599.23;106642;1305;22260;-85
2022/12/12 09:21:16;;;;;;;51.00;45.50;;;;;;;-3.18;99.73;96598.45;106448;1304;22117;-84
2022/12/12 09:23:47;;;;;;;51.70;45.60;;;;;;;-3.20;99.41;96601.38;106447;1312;22088;-84
2022/12/12 09:26:16;;;;;;;47.30;42.50;;;;;;;-3.22;99.27;96599.52;106671;1305;22164;-84
2022/12/12 09:28:45;;;;;;;45.60;41.10;;;;;;;-3.18;99.51;96602.30;106419;1312;22192;-83
2022/12/12 09:31:13;;;;;;;47.70;43.10;;;;;;;-3.12;99.61;96599.86;106516;1312;23107;-85
2022/12/12 09:33:42;;;;;;;46.10;41.80;;;;;;;-3.13;99.76;96596.26;106524;1304;22244;-85
2022/12/12 09:36:11;;;;;;;47.10;42.50;;;;;;;-3.17;99.42;96600.27;106771;1288;22773;-87
2022/12/12 09:38:39;;;;;;;45.80;41.30;;;;;;;-3.14;99.44;96604.09;106483;1312;22139;-84
2022/12/12 09:41:18;;;;;;;43.20;39.30;;;;;;;-3.10;99.53;96600.56;106782;1294;23555;-83
2022/12/12 09:43:55;;;;;;;48.10;43.60;;;;;;;-3.04;99.65;96601.33;106508;1312;22103;-84
2022/12/12 09:46:36;;;;;;;47.50;43.00;;;;;;;-2.95;99.74;96598.28;106659;1291;22176;-84
2022/12/12 09:49:23;;;;;;;44.70;40.30;;;;;;;-2.90;99.34;96599.55;106776;1305;22274;-84
2022/12/12 09:51:53;;;;;;;42.80;38.80;;;;;;;-2.89;99.21;96596.56;106700;1305;22153;-84
2022/12/12 09:54:24;;;;;;;42.10;38.30;;;;;;;-2.85;99.35;96595.98;106499;1303;22094;-85
2022/12/12 09:57:06;;;;;;;44.20;39.80;;;;;;;-2.82;99.20;96599.92;106315;1313;22224;-84
2022/12/12 09:59:42;;;;;;;45.40;41.30;;;;;;;-2.84;99.03;96597.52;106483;1312;22261;-85
2022/12/12 10:02:22;;;;;;;44.90;40.70;;;;;;;-2.84;98.99;96597.21;106286;1312;22324;-84
2022/12/12 10:05:12;;;;;;;44.60;40.40;;;;;;;-2.85;98.88;96596.05;106498;1312;22190;-85
2022/12/12 10:08:08;;;;;;;40.80;36.90;;;;;;;-2.81;99.18;96602.27;106783;1305;22047;-85
2022/12/12 10:10:38;;;;;;;;;;;;;;;-2.81;98.94;96598.73;106826;1301;23157;-85
2022/12/12 10:13:15;;;;;;;54.40;49.30;;;;;;;-2.87;98.91;96599.65;106815;1296;22867;-84
2022/12/12 10:15:57;;;;;;;45.60;41.30;;;;;;;-2.88;98.95;96599.17;106532;1303;22220;-83
2022/12/12 10:18:34;;;;;;;42.20;38.10;;;;;;;-2.83;98.98;96602.76;106467;1312;22702;-83
2022/12/12 10:21:08;;;;;;;44.50;40.40;;;;;;;-2.84;98.58;96605.01;106621;1306;22050;-83
2022/12/12 10:23:45;;;;;;;44.10;40.00;;;;;;;-2.84;98.78;96600.95;106762;1288;22013;-84
2022/12/12 10:26:23;;;;;;;47.10;42.80;;;;;;;-2.79;99.11;96601.91;106668;1300;22228;-84
2022/12/12 10:29:14;;;;;;;43.80;39.90;;;;;;;-2.80;98.68;96599.16;106519;1312;22162;-84
2022/12/12 10:32:08;;;;;;;42.40;38.50;;;;;;;-2.88;98.93;96600.70;106289;1312;22148;-83
2022/12/12 10:34:54;;;;;;;43.80;39.70;;;;;;;-2.88;98.83;96602.23;106369;1312;22172;-85
2022/12/12 10:37:32;;;;;;;43.80;39.90;;;;;;;-2.88;98.88;96600.16;106468;1312;22085;-85
2022/12/12 10:40:30;;;;;;;44.30;40.40;;;;;;;-2.88;99.02;96602.49;106765;1305;22115;-85
2022/12/12 10:43:21;;;;;;;48.60;44.10;;;;;;;-2.95;98.95;96594.90;106778;1303;22220;-84
2022/12/12 10:46:23;;;;;;;48.60;43.90;;;;;;;-2.96;99.21;96594.43;106795;1297;22238;-84
2022/12/12 10:48:52;;;;;;;49.30;44.60;;;;;;;-2.92;99.20;96595.52;106620;1305;22194;-84
2022/12/12 10:51:26;;;;;;;46.70;42.30;;;;;;;-2.89;99.37;96594.92;106519;1312;22239;-85
2022/12/12 10:53:54;;;;;;;46.80;42.40;;;;;;;-2.83;99.57;96591.27;106260;1307;22984;-85
2022/12/12 10:56:26;;;;;;;50.30;45.60;;;;;;;-2.84;99.48;96590.78;106284;1314;23287;-85
2022/12/12 10:58:56;;;;;;;49.80;45.10;;;;;;;-2.82;99.57;96592.55;106477;1312;22257;-85
2022/12/12 11:01:36;;;;;;;46.40;42.10;;;;;;;-2.81;99.34;96592.08;106658;1291;22059;-84
2022/12/12 11:04:26;;;;;;;47.60;43.10;;;;;;;-2.84;99.39;96589.44;106613;1305;22064;-84
2022/12/12 11:06:55;;;;;;;46.10;41.60;;;;;;;-2.85;99.53;96591.26;106606;1305;22188;-84
2022/12/12 11:09:24;;;;;;;47.20;42.70;;;;;;;-2.84;99.57;96592.21;106755;1297;22223;-83
2022/12/12 11:11:57;;;;;;;48.90;44.30;;;;;;;-2.83;99.62;96588.58;106541;1312;22206;-82
2022/12/12 11:14:46;;;;;;;52.20;47.50;;;;;;;-2.83;99.83;96588.63;106513;1312;22218;-83
2022/12/12 11:17:21;;;;;;;47.00;42.70;;;;;;;-2.81;99.45;96584.54;106678;1305;22853;-84
2022/12/12 11:19:51;;;;;;;46.60;42.20;;;;;;;-2.85;99.50;96584.98;106489;1312;22923;-85
2022/12/12 11:22:20;;;;;;;43.90;39.80;;;;;;;-2.85;99.73;96588.14;106646;1290;22648;-85
2022/12/12 11:24:49;;;;;;;46.20;41.90;;;;;;;-2.80;100.00;96583.55;106579;1311;22907;-85
2022/12/12 11:27:23;;;;;;;48.30;44.00;;;;;;;-2.79;99.87;96587.52;106779;1298;22151;-83
2022/12/12 11:30:07;;;;;;;51.60;46.70;;;;;;;-2.79;99.85;96585.20;106819;1297;22100;-87
2022/12/12 11:32:39;;;;;;;47.10;42.70;;;;;;;-2.79;99.90;96584.58;106672;1305;22115;-84
2022/12/12 11:35:26;;;;;;;45.70;41.40;;;;;;;-2.81;99.78;96589.40;106763;1288;22242;-84
2022/12/12 11:38:00;;;;;;;46.20;42.00;;;;;;;-2.78;99.75;96587.75;106495;1312;22082;-84
2022/12/12 11:40:31;;;;;;;44.80;40.70;;;;;;;-2.80;99.96;96588.30;106133;1312;22175;-84
2022/12/12 11:43:18;;;;;;;50.50;45.60;;;;;;;-2.77;99.98;96584.11;106443;1312;22229;-83
2022/12/12 11:46:01;;;;;;;55.90;50.70;;;;;;;-2.74;99.98;96587.48;106748;1305;22197;-84
2022/12/12 11:48:35;;;;;;;48.30;43.80;;;;;;;-2.71;100.00;96587.98;106414;1313;22248;-85
2022/12/12 11:51:05;;;;;;;47.40;43.00;;;;;;;-2.68;99.87;96584.95;106703;1305;22084;-84
2022/12/12 11:53:44;;;;;;;47.90;43.30;;;;;;;-2.67;99.88;96589.55;106683;1305;22227;-84